Time;durP1;ratioP1;P1;durP2;ratioP2;P2;SDS_P1;SDS_P2;PMS_P1;PMS_P2;Temp;Humidity;BMP_temperature;BMP_pressure;BME280_temperature;BME280_humidity;BME280_pressure;Samples;Min_cycle;Max_cycle;Signal;HPM_P1;HPM_P2
2022/12/17 13:06:55;;;;;;;43.65;22.35;;;0.80;99.70;;;;;;4906028;29;20104;-72
2022/12/17 13:09:37;;;;;;;43.38;23.88;;;1.40;98.50;;;;;;4908279;29;20037;-72
2022/12/17 13:12:19;;;;;;;41.70;23.17;;;1.60;98.60;;;;;;4925296;29;20043;-71
2022/12/17 13:14:57;;;;;;;40.72;22.83;;;2.00;97.80;;;;;;4889831;29;20040;-71
2022/12/17 13:17:43;;;;;;;40.33;22.65;;;2.20;96.90;;;;;;4905699;29;20092;-72
2022/12/17 13:20:32;;;;;;;38.72;22.65;;;1.90;96.60;;;;;;4905822;29;20255;-72
2022/12/17 13:23:14;;;;;;;39.55;22.27;;;1.30;97.10;;;;;;4906437;29;20033;-74
2022/12/17 13:25:40;;;;;;;42.28;22.77;;;0.90;97.60;;;;;;4905737;29;20028;-73
2022/12/17 13:28:26;;;;;;;44.83;23.73;;;0.60;98.30;;;;;;4911279;29;20067;-73
2022/12/17 13:31:04;;;;;;;44.88;22.52;;;0.40;99.10;;;;;;4885324;29;20062;-73
2022/12/17 13:33:51;;;;;;;43.35;24.10;;;0.30;99.60;;;;;;4920233;29;20309;-73
2022/12/17 13:36:20;;;;;;;47.00;24.27;;;0.30;99.70;;;;;;4903636;29;20051;-72
2022/12/17 13:38:55;;;;;;;44.45;23.65;;;0.00;99.80;;;;;;4904983;29;20025;-73
2022/12/17 13:41:30;;;;;;;45.97;24.75;;;0.00;99.90;;;;;;4904571;29;20033;-75
2022/12/17 13:44:01;;;;;;;44.72;24.35;;;0.10;99.80;;;;;;4910295;29;20340;-72
2022/12/17 13:46:45;;;;;;;44.97;23.80;;;0.00;99.90;;;;;;4905801;29;20159;-74
2022/12/17 13:49:19;;;;;;;42.00;23.35;;;0.00;99.90;;;;;;4905790;29;20033;-74
2022/12/17 13:51:45;;;;;;;48.90;24.75;;;0.20;99.90;;;;;;4890393;29;20045;-72
2022/12/17 13:54:17;;;;;;;44.35;23.67;;;0.30;99.90;;;;;;4892630;29;20195;-72
2022/12/17 13:56:43;;;;;;;46.45;24.38;;;0.30;99.60;;;;;;4909621;29;20029;-72
2022/12/17 13:59:21;;;;;;;45.10;24.13;;;0.00;99.90;;;;;;4908972;29;20058;-73
2022/12/17 14:01:52;;;;;;;47.88;26.00;;;-0.40;99.90;;;;;;4892290;29;20047;-73
2022/12/17 14:04:29;;;;;;;46.15;24.88;;;-0.70;99.90;;;;;;4909157;29;20361;-74
2022/12/17 14:06:59;;;;;;;48.15;25.33;;;-0.40;99.90;;;;;;4909344;29;20055;-73
2022/12/17 14:09:42;;;;;;;49.25;24.48;;;-0.10;99.90;;;;;;4908733;29;20382;-74
2022/12/17 14:12:22;;;;;;;43.05;23.40;;;0.10;99.90;;;;;;4909290;29;20086;-73
2022/12/17 14:14:57;;;;;;;44.13;24.13;;;0.10;99.90;;;;;;4892507;29;20229;-73
2022/12/17 14:17:23;;;;;;;45.88;23.52;;;-0.10;99.90;;;;;;4909026;29;20060;-74
2022/12/17 14:20:06;;;;;;;40.35;23.02;;;-0.40;99.90;;;;;;4909239;29;20087;-74
2022/12/17 14:22:39;;;;;;;49.67;24.98;;;-0.30;99.90;;;;;;4907926;29;20055;-73
2022/12/17 14:25:13;;;;;;;47.08;24.38;;;-0.30;99.90;;;;;;4908988;29;20100;-74
2022/12/17 14:27:40;;;;;;;43.97;23.40;;;0.10;99.90;;;;;;4908510;29;20048;-73
2022/12/17 14:30:22;;;;;;;42.08;23.38;;;0.10;99.90;;;;;;4908739;29;20325;-72
2022/12/17 14:32:48;;;;;;;43.47;22.70;;;0.10;99.90;;;;;;4908739;29;20104;-72
2022/12/17 14:35:28;;;;;;;46.45;25.60;;;0.00;99.90;;;;;;4908955;29;20036;-74
2022/12/17 14:37:55;;;;;;;50.33;25.27;;;-0.40;99.90;;;;;;4876451;29;20037;-74
2022/12/17 14:40:27;;;;;;;50.38;25.70;;;-0.70;99.90;;;;;;4891251;29;20329;-73
2022/12/17 14:42:58;;;;;;;50.35;24.38;;;-0.90;99.90;;;;;;4908534;29;20101;-73
2022/12/17 14:45:26;;;;;;;45.47;23.83;;;-1.10;99.90;;;;;;4907141;29;20029;-75
2022/12/17 14:48:00;;;;;;;47.78;25.05;;;-1.20;99.90;;;;;;4908438;29;20088;-73
2022/12/17 14:50:32;;;;;;;53.33;26.80;;;-1.70;99.90;;;;;;4907930;29;20041;-73
2022/12/17 14:53:21;;;;;;;50.55;25.88;;;-2.00;99.90;;;;;;4908033;29;20234;-72
2022/12/17 14:55:53;;;;;;;71.68;32.60;;;-2.20;99.90;;;;;;4908231;29;20037;-73
2022/12/17 14:58:25;;;;;;;65.43;32.75;;;-2.40;99.90;;;;;;4908054;29;20041;-73
2022/12/17 15:01:04;;;;;;;68.90;32.25;;;-2.50;99.90;;;;;;4907646;29;20037;-73
2022/12/17 15:03:33;;;;;;;57.00;27.63;;;-2.70;99.90;;;;;;4907457;29;20083;-72
2022/12/17 15:06:05;;;;;;;54.85;26.00;;;-2.90;99.90;;;;;;4907754;29;20032;-74
2022/12/17 15:08:34;;;;;;;60.97;27.65;;;-3.20;99.90;;;;;;4907103;29;20047;-72
2022/12/17 15:11:03;;;;;;;61.90;26.85;;;-3.40;99.90;;;;;;4907634;29;20047;-74
2022/12/17 15:13:29;;;;;;;57.63;29.85;;;-3.40;99.90;;;;;;4907685;29;20035;-74
2022/12/17 15:15:56;;;;;;;57.85;27.08;;;-3.50;99.90;;;;;;4908034;29;20040;-72
2022/12/17 15:18:25;;;;;;;67.43;31.13;;;-3.60;99.90;;;;;;4907436;29;20116;-73
2022/12/17 15:20:56;;;;;;;66.25;30.63;;;-3.70;99.90;;;;;;4907726;29;20326;-73
2022/12/17 15:23:29;;;;;;;105.97;47.22;;;-3.70;99.90;;;;;;4907674;29;20100;-72
2022/12/17 15:25:55;;;;;;;75.30;37.90;;;-3.80;99.90;;;;;;4908107;29;20100;-74
2022/12/17 15:28:26;;;;;;;69.57;33.42;;;-3.90;99.90;;;;;;4906527;29;20040;-73
2022/12/17 15:30:54;;;;;;;67.68;33.45;;;-3.90;99.90;;;;;;4890936;29;20046;-72
2022/12/17 15:33:20;;;;;;;73.43;34.22;;;-4.10;99.90;;;;;;4907664;29;20056;-74
2022/12/17 15:35:46;;;;;;;75.53;33.90;;;-4.10;99.90;;;;;;4906753;29;20028;-74
2022/12/17 15:38:12;;;;;;;75.53;33.13;;;-4.10;99.90;;;;;;4903331;29;20024;-73
2022/12/17 15:40:38;;;;;;;73.82;33.28;;;-4.10;99.90;;;;;;4912422;29;20326;-72
2022/12/17 15:43:10;;;;;;;71.20;34.33;;;-4.20;99.90;;;;;;4892091;29;20065;-73
2022/12/17 15:45:47;;;;;;;75.60;32.70;;;-4.30;99.90;;;;;;4865954;29;20103;-72
2022/12/17 15:48:16;;;;;;;75.68;33.30;;;-4.40;99.90;;;;;;4899955;29;20338;-72
2022/12/17 15:50:45;;;;;;;77.82;33.55;;;-4.50;99.90;;;;;;4895788;29;20037;-74
2022/12/17 15:53:11;;;;;;;82.80;35.53;;;-4.60;99.90;;;;;;4904887;29;20036;-73
2022/12/17 15:55:37;;;;;;;78.00;34.60;;;-4.70;99.90;;;;;;4899203;29;20115;-73
2022/12/17 15:58:03;;;;;;;82.07;35.95;;;-4.70;99.90;;;;;;4901626;29;20056;-74
2022/12/17 16:00:29;;;;;;;81.22;35.42;;;-4.80;99.90;;;;;;4900826;29;20215;-74
2022/12/17 16:02:55;;;;;;;76.03;34.08;;;-4.80;99.90;;;;;;4900964;29;20048;-72
2022/12/17 16:05:21;;;;;;;96.82;41.95;;;-4.80;99.90;;;;;;4905548;29;20033;-72
2022/12/17 16:07:47;;;;;;;89.60;41.47;;;-4.90;99.90;;;;;;4906810;29;20107;-71
2022/12/17 16:10:20;;;;;;;74.03;35.15;;;-4.90;99.90;;;;;;4893936;29;20029;-73
2022/12/17 16:12:45;;;;;;;78.20;36.08;;;-5.00;99.90;;;;;;4902796;29;20095;-72
2022/12/17 16:15:12;;;;;;;74.68;34.13;;;-4.90;99.90;;;;;;4897670;29;20035;-72
2022/12/17 16:17:41;;;;;;;79.75;35.90;;;-5.00;99.90;;;;;;4885192;29;20067;-72
2022/12/17 16:20:10;;;;;;;75.43;33.97;;;-5.00;99.90;;;;;;4899990;29;20035;-73
2022/12/17 16:22:36;;;;;;;84.07;37.33;;;-5.00;99.90;;;;;;4898544;29;20033;-74
2022/12/17 16:25:02;;;;;;;78.97;34.65;;;-4.90;99.90;;;;;;4895234;29;20035;-74
2022/12/17 16:27:28;;;;;;;78.18;34.42;;;-4.90;99.90;;;;;;4894485;29;20028;-74
2022/12/17 16:29:54;;;;;;;76.43;34.53;;;-4.90;99.90;;;;;;4882561;29;20051;-76
2022/12/17 16:32:20;;;;;;;79.03;34.78;;;-4.90;99.90;;;;;;4902422;29;20032;-73
2022/12/17 16:34:46;;;;;;;72.07;34.55;;;-4.80;99.90;;;;;;4900989;29;20374;-73
2022/12/17 16:37:12;;;;;;;74.75;33.65;;;-4.90;99.90;;;;;;4892279;29;20055;-72
2022/12/17 16:39:37;;;;;;;79.30;33.88;;;-4.90;99.90;;;;;;4902352;29;20033;-75
2022/12/17 16:42:03;;;;;;;73.72;35.45;;;-4.90;99.90;;;;;;4899104;29;20039;-75
2022/12/17 16:44:29;;;;;;;78.80;34.45;;;-4.90;99.90;;;;;;4902823;29;20050;-74
2022/12/17 16:46:55;;;;;;;72.63;33.95;;;-5.00;99.90;;;;;;4897126;29;20033;-75
2022/12/17 16:49:22;;;;;;;74.97;33.38;;;-5.00;99.90;;;;;;4900684;29;20029;-74
2022/12/17 16:51:51;;;;;;;79.78;35.20;;;-5.10;99.90;;;;;;4884331;29;20275;-76
2022/12/17 16:54:22;;;;;;;74.47;33.72;;;-5.20;99.90;;;;;;4902332;29;20101;-74
2022/12/17 16:56:48;;;;;;;88.18;40.78;;;-5.20;99.90;;;;;;4901737;29;20044;-73
2022/12/17 16:59:15;;;;;;;79.00;35.78;;;-5.30;99.90;;;;;;4898203;29;20052;-74
2022/12/17 17:01:46;;;;;;;73.10;34.03;;;-5.40;99.90;;;;;;4902956;29;20052;-74
2022/12/17 17:04:13;;;;;;;80.18;34.22;;;-5.30;99.90;;;;;;4901440;29;20377;-74
2022/12/17 17:06:43;;;;;;;55.10;26.30;;;-5.30;99.90;;;;;;4884544;29;20134;-76
2022/12/17 17:09:11;;;;;;;80.35;35.20;;;-5.30;99.90;;;;;;4905674;29;20315;-74
2022/12/17 17:11:38;;;;;;;73.13;33.88;;;-5.30;99.90;;;;;;4905341;29;20049;-74
2022/12/17 17:14:05;;;;;;;79.75;35.85;;;-5.30;99.90;;;;;;4905935;29;20032;-73
2022/12/17 17:16:33;;;;;;;81.73;36.30;;;-5.30;99.90;;;;;;4905786;29;20306;-75
2022/12/17 17:19:00;;;;;;;62.55;27.02;;;-5.40;99.90;;;;;;4906256;29;20429;-74
2022/12/17 17:21:46;;;;;;;85.15;37.63;;;-5.40;99.90;;;;;;4905562;29;20025;-77
2022/12/17 17:24:15;;;;;;;108.10;51.88;;;-5.40;99.90;;;;;;4906073;29;20036;-73
2022/12/17 17:26:45;;;;;;;92.03;40.47;;;-5.40;99.90;;;;;;4884794;29;20052;-74
2022/12/17 17:29:11;;;;;;;79.47;36.67;;;-5.40;99.90;;;;;;4903442;29;20044;-76
2022/12/17 17:31:37;;;;;;;84.80;35.90;;;-5.40;99.90;;;;;;4908457;29;20080;-73
2022/12/17 17:34:11;;;;;;;88.75;37.20;;;-5.50;99.90;;;;;;4920625;29;20036;-74
2022/12/17 17:36:38;;;;;;;80.10;35.83;;;-5.60;99.90;;;;;;4915039;29;20024;-73
2022/12/17 17:39:04;;;;;;;88.03;36.88;;;-5.60;99.90;;;;;;4923627;29;20032;-75
2022/12/17 17:41:31;;;;;;;81.30;37.17;;;-5.60;99.90;;;;;;4914515;29;20087;-75
2022/12/17 17:44:06;;;;;;;65.80;32.45;;;-5.60;99.90;;;;;;4892695;29;20040;-73
2022/12/17 17:46:32;;;;;;;82.70;36.10;;;-5.70;99.90;;;;;;4924826;29;20023;-73
2022/12/17 17:48:59;;;;;;;82.72;35.45;;;-5.80;99.90;;;;;;4914315;29;20036;-74
2022/12/17 17:51:28;;;;;;;87.10;35.35;;;-5.80;99.90;;;;;;4909143;29;20020;-74
2022/12/17 17:53:54;;;;;;;112.30;51.53;;;-5.80;99.90;;;;;;4891711;29;20072;-74
2022/12/17 17:56:25;;;;;;;89.05;38.13;;;-5.80;99.90;;;;;;4890273;29;20366;-75
2022/12/17 17:58:54;;;;;;;86.22;37.42;;;-5.80;99.90;;;;;;4893651;29;20063;-73
2022/12/17 18:01:22;;;;;;;83.78;36.13;;;-5.90;99.90;;;;;;4908599;29;20044;-75
2022/12/17 18:03:49;;;;;;;85.22;38.33;;;-5.90;99.90;;;;;;4923034;29;20056;-76
2022/12/17 18:06:16;;;;;;;83.97;35.72;;;-5.90;99.90;;;;;;4923500;29;20092;-74
2022/12/17 18:08:43;;;;;;;85.95;36.38;;;-6.00;99.90;;;;;;4908194;29;20029;-75
2022/12/17 18:11:19;;;;;;;85.07;37.42;;;-6.00;99.90;;;;;;4918790;29;20377;-75
2022/12/17 18:13:55;;;;;;;89.53;36.50;;;-6.00;99.90;;;;;;4927488;29;20036;-75
2022/12/17 18:16:38;;;;;;;88.53;38.42;;;-6.00;99.90;;;;;;4925789;29;20286;-76
2022/12/17 18:19:21;;;;;;;84.82;36.40;;;-6.00;99.90;;;;;;4927711;29;20020;-76
2022/12/17 18:21:58;;;;;;;89.22;38.08;;;-6.00;99.90;;;;;;4927271;29;20024;-79
2022/12/17 19:08:23;;;;;;;99.85;40.85;;;-6.50;99.90;;;;;;4831654;29;20207;-73
2022/12/17 19:38:18;;;;;;;90.72;40.40;;;-6.40;99.90;;;;;;4851733;29;20219;-74
2022/12/17 19:41:41;;;;;;;102.20;41.28;;;-6.50;99.90;;;;;;4849352;29;20029;-73
2022/12/17 19:44:55;;;;;;;91.15;38.03;;;-6.50;99.90;;;;;;4782207;30;20030;-75
2022/12/17 19:47:21;;;;;;;;;;;-6.50;99.90;;;;;;4795077;29;20043;-76
2022/12/17 19:49:50;;;;;;;93.82;39.92;;;-6.40;99.90;;;;;;4794980;30;19994;-80
2022/12/17 19:52:21;;;;;;;88.03;39.03;;;-6.40;99.90;;;;;;4795706;30;20383;-79
2022/12/17 20:02:31;;;;;;;86.47;37.70;;;-6.40;99.90;;;;;;4796655;29;20025;-82
2022/12/17 20:05:09;;;;;;;90.10;38.78;;;-6.40;99.90;;;;;;4803271;29;20062;-79
2022/12/17 20:07:45;;;;;;;92.78;38.15;;;-6.50;99.90;;;;;;4772714;30;20054;-79
2022/12/17 20:10:10;;;;;;;94.55;38.22;;;-6.60;99.90;;;;;;4777652;30;20214;-81
2022/12/17 20:12:39;;;;;;;97.25;39.15;;;-6.70;99.90;;;;;;4761702;30;20035;-79
2022/12/17 20:15:05;;;;;;;95.15;39.00;;;-6.60;99.90;;;;;;4776857;30;20169;-78
2022/12/17 20:17:52;;;;;;;94.78;39.65;;;-6.70;99.90;;;;;;4776622;30;20356;-78
2022/12/17 20:20:17;;;;;;;93.95;39.60;;;-6.70;99.90;;;;;;4779698;29;20054;-78
2022/12/17 20:22:46;;;;;;;92.50;36.53;;;-6.70;99.90;;;;;;4864139;29;20094;-78
2022/12/17 20:25:24;;;;;;;97.55;39.70;;;-6.70;99.90;;;;;;4867602;29;20062;-78
2022/12/17 20:28:18;;;;;;;83.65;36.17;;;-6.70;99.90;;;;;;4847850;29;20046;-80
2022/12/17 20:31:01;;;;;;;87.40;35.05;;;-6.60;99.90;;;;;;4860271;29;20134;-77
2022/12/17 20:49:04;;;;;;;99.43;40.85;;;-6.70;99.90;;;;;;4904409;29;20410;-79
2022/12/17 20:51:34;;;;;;;94.50;38.65;;;-6.80;99.90;;;;;;4889851;29;20117;-79
2022/12/17 20:54:01;;;;;;;94.03;37.85;;;-6.80;99.90;;;;;;4906388;29;20092;-80
2022/12/17 20:57:01;;;;;;;165.68;72.20;;;-6.80;99.90;;;;;;4906364;29;20091;-79
2022/12/17 20:59:33;;;;;;;105.07;43.72;;;-6.70;99.90;;;;;;4889699;29;20198;-80
2022/12/17 21:02:18;;;;;;;84.45;36.75;;;-6.80;99.90;;;;;;4899591;29;20029;-79
2022/12/17 21:04:52;;;;;;;88.72;37.17;;;-6.70;99.90;;;;;;4917821;29;20032;-80
2022/12/17 21:07:40;;;;;;;92.70;38.65;;;-6.70;99.90;;;;;;4937022;29;20126;-80
2022/12/17 21:11:03;;;;;;;87.57;38.10;;;-6.80;99.90;;;;;;4931261;29;20020;-77
2022/12/17 21:25:12;;;;;;;93.57;38.95;;;-6.90;99.90;;;;;;4859253;29;20063;-79
2022/12/17 21:27:40;;;;;;;94.88;39.92;;;-6.80;99.90;;;;;;4861994;29;20038;-80
2022/12/17 21:34:37;;;;;;;91.80;36.95;;;-6.80;99.90;;;;;;4872435;29;20029;-80
2022/12/17 21:37:26;;;;;;;92.68;37.80;;;-6.80;99.90;;;;;;4824226;29;20358;-79
2022/12/17 21:40:28;;;;;;;94.25;37.40;;;-6.80;99.90;;;;;;4829124;29;20063;-79
2022/12/17 21:43:14;;;;;;;92.03;39.28;;;-6.80;99.90;;;;;;4815158;29;20239;-79
2022/12/17 21:46:07;;;;;;;95.57;39.15;;;-6.80;99.90;;;;;;4814980;29;20086;-81
2022/12/17 21:51:34;;;;;;;86.57;37.80;;;-6.80;99.90;;;;;;4796050;30;20063;-78
2022/12/17 21:54:25;;;;;;;95.47;38.90;;;-6.80;99.90;;;;;;4797230;30;20126;-80
2022/12/17 22:04:07;;;;;;;90.47;37.58;;;-6.90;99.90;;;;;;4805515;29;20038;-80
2022/12/17 22:14:47;;;;;;;82.15;36.88;;;-6.90;99.90;;;;;;4814772;29;20217;-78
2022/12/17 22:17:31;;;;;;;84.53;35.35;;;-7.00;99.90;;;;;;4815088;29;20043;-81
2022/12/17 22:24:12;;;;;;;;;;;;;;;;;;;;;
2022/12/17 22:27:03;;;;;;;85.43;36.83;;;-7.10;99.90;;;;;;4832714;29;20072;-79
2022/12/17 22:40:35;;;;;;;86.85;36.00;;;-7.00;99.90;;;;;;4888240;29;20084;-79
2022/12/17 22:43:28;;;;;;;85.47;37.40;;;-7.10;99.90;;;;;;4889924;29;20311;-78
2022/12/17 22:46:16;;;;;;;86.50;35.63;;;-7.00;99.90;;;;;;4889480;29;20033;-79
2022/12/17 22:48:42;;;;;;;89.45;37.53;;;-7.10;99.90;;;;;;4873010;29;20053;-79
2022/12/17 22:51:19;;;;;;;86.40;38.38;;;-7.10;99.90;;;;;;4903741;29;20025;-79
2022/12/17 22:53:50;;;;;;;;;;;-7.20;99.90;;;;;;4889498;29;20311;-79
2022/12/17 22:56:39;;;;;;;82.55;36.63;;;-7.10;99.90;;;;;;4889942;29;19907;-80
2022/12/17 22:59:31;;;;;;;86.55;38.58;;;-7.10;99.90;;;;;;4903725;29;20029;-79
2022/12/17 23:02:02;;;;;;;85.43;36.33;;;-7.10;99.90;;;;;;4857581;29;20093;-78
2022/12/17 23:04:43;;;;;;;91.13;39.25;;;-7.10;99.90;;;;;;4812879;29;20501;-78
2022/12/17 23:07:12;;;;;;;80.72;36.15;;;-7.10;99.90;;;;;;4852100;29;20034;-78
2022/12/17 23:09:43;;;;;;;78.90;35.58;;;-7.10;99.90;;;;;;4839608;29;20334;-78
2022/12/17 23:15:49;;;;;;;84.22;36.35;;;-7.00;99.90;;;;;;4835886;29;20082;-77
2022/12/17 23:21:22;;;;;;;87.35;37.03;;;-7.10;99.90;;;;;;4846363;29;20122;-78
2022/12/17 23:38:06;;;;;;;85.20;35.90;;;-7.30;99.90;;;;;;4886313;29;20041;-79
2022/12/17 23:41:38;;;;;;;88.78;36.72;;;-7.30;99.90;;;;;;4869018;29;20070;-78
2022/12/17 23:44:04;;;;;;;82.72;36.22;;;-7.30;99.90;;;;;;4870189;29;20065;-78
2022/12/17 23:53:00;;;;;;;88.13;37.67;;;-7.40;99.90;;;;;;4830866;29;20121;-79
2022/12/17 23:55:32;;;;;;;93.57;40.47;;;-7.40;99.90;;;;;;4831505;29;20077;-79
2022/12/17 23:58:06;;;;;;;94.13;38.50;;;-7.40;99.90;;;;;;4831121;29;20091;-79
